sensor_id;sensor_type;location;lat;lon;timestamp;pressure;altitude;pressure_sealevel;temperature;humidity
74798;BME280;63326;45.088;7.658;2023-02-21T00:02:21;99437.19;;;7.03;79.42
74798;BME280;63326;45.088;7.658;2023-02-21T00:05:06;99519.44;;;7.46;79.47
74798;BME280;63326;45.088;7.658;2023-02-21T00:07:52;99476.75;;;7.08;80.40
74798;BME280;63326;45.088;7.658;2023-02-21T00:10:37;99439.84;;;6.84;80.57
74798;BME280;63326;45.088;7.658;2023-02-21T00:13:22;99510.31;;;7.30;80.69
74798;BME280;63326;45.088;7.658;2023-02-21T00:16:07;99482.09;;;7.27;80.40
74798;BME280;63326;45.088;7.658;2023-02-21T00:18:52;99506.94;;;7.47;79.90
74798;BME280;63326;45.088;7.658;2023-02-21T00:21:37;99501.63;;;7.47;80.77
74798;BME280;63326;45.088;7.658;2023-02-21T00:24:22;99494.84;;;7.53;80.04
74798;BME280;63326;45.088;7.658;2023-02-21T00:27:07;99456.41;;;7.36;79.84
74798;BME280;63326;45.088;7.658;2023-02-21T00:29:52;99440.13;;;7.19;79.91
74798;BME280;63326;45.088;7.658;2023-02-21T00:32:38;99464.13;;;7.39;80.48
74798;BME280;63326;45.088;7.658;2023-02-21T00:35:23;99483.19;;;7.54;79.67
74798;BME280;63326;45.088;7.658;2023-02-21T00:38:09;99471.44;;;7.37;80.28
74798;BME280;63326;45.088;7.658;2023-02-21T00:40:54;99453.59;;;7.18;80.92
74798;BME280;63326;45.088;7.658;2023-02-21T00:43:40;99451.19;;;7.25;80.88
74798;BME280;63326;45.088;7.658;2023-02-21T00:46:26;99479.44;;;7.46;80.50
74798;BME280;63326;45.088;7.658;2023-02-21T00:49:11;99476.88;;;7.45;80.62
74798;BME280;63326;45.088;7.658;2023-02-21T00:51:56;99452.88;;;7.35;80.47
74798;BME280;63326;45.088;7.658;2023-02-21T00:54:41;99454.97;;;7.41;80.84
74798;BME280;63326;45.088;7.658;2023-02-21T00:57:51;99407.84;;;7.13;80.21
74798;BME280;63326;45.088;7.658;2023-02-21T01:00:36;99454.97;;;7.41;80.67
74798;BME280;63326;45.088;7.658;2023-02-21T01:03:22;99457.09;;;7.47;81.18
74798;BME280;63326;45.088;7.658;2023-02-21T01:06:09;99463.69;;;7.43;81.58
74798;BME280;63326;45.088;7.658;2023-02-21T01:08:55;99463.69;;;7.43;81.45
74798;BME280;63326;45.088;7.658;2023-02-21T01:11:41;99441.78;;;7.40;81.35
74798;BME280;63326;45.088;7.658;2023-02-21T01:14:26;99391.28;;;7.09;80.37
74798;BME280;63326;45.088;7.658;2023-02-21T01:17:11;99427.63;;;7.30;81.74
74798;BME280;63326;45.088;7.658;2023-02-21T01:19:59;99458.47;;;7.51;80.84
74798;BME280;63326;45.088;7.658;2023-02-21T01:22:46;99451.75;;;7.47;81.55
74798;BME280;63326;45.088;7.658;2023-02-21T01:25:31;99434.75;;;7.48;80.50
74798;BME280;63326;45.088;7.658;2023-02-21T01:28:17;99453.81;;;7.63;80.84
74798;BME280;63326;45.088;7.658;2023-02-21T01:31:02;99451.44;;;7.60;81.52
74798;BME280;63326;45.088;7.658;2023-02-21T01:33:47;99452.81;;;7.64;80.68
74798;BME280;63326;45.088;7.658;2023-02-21T01:36:32;99443.75;;;7.57;81.04
74798;BME280;63326;45.088;7.658;2023-02-21T01:39:19;99398.97;;;7.32;81.42
74798;BME280;63326;45.088;7.658;2023-02-21T01:42:04;99435.31;;;7.52;81.10
74798;BME280;63326;45.088;7.658;2023-02-21T01:48:11;99405.97;;;7.42;81.53
74798;BME280;63326;45.088;7.658;2023-02-21T01:50:57;99420.13;;;7.62;81.05
74798;BME280;63326;45.088;7.658;2023-02-21T01:53:43;99414.09;;;7.60;80.86
74798;BME280;63326;45.088;7.658;2023-02-21T01:56:30;99426.72;;;7.58;81.24
74798;BME280;63326;45.088;7.658;2023-02-21T01:59:17;99409.91;;;7.48;81.49
74798;BME280;63326;45.088;7.658;2023-02-21T02:05:03;99418.16;;;7.55;81.92
74798;BME280;63326;45.088;7.658;2023-02-21T02:07:51;99393.91;;;7.48;81.58
74798;BME280;63326;45.088;7.658;2023-02-21T02:10:40;99382.53;;;7.46;80.96
74798;BME280;63326;45.088;7.658;2023-02-21T02:13:36;99406.63;;;7.64;81.71
74798;BME280;63326;45.088;7.658;2023-02-21T02:16:16;99406.63;;;7.64;81.06
74798;BME280;63326;45.088;7.658;2023-02-21T02:23:59;99399.91;;;7.60;81.77
74798;BME280;63326;45.088;7.658;2023-02-21T02:35:38;99380.50;;;7.67;81.13
74798;BME280;63326;45.088;7.658;2023-02-21T02:38:23;99375.44;;;7.64;81.24
74798;BME280;63326;45.088;7.658;2023-02-21T02:41:27;99374.44;;;7.65;81.40
74798;BME280;63326;45.088;7.658;2023-02-21T02:44:14;99352.59;;;7.52;81.20
74798;BME280;63326;45.088;7.658;2023-02-21T02:46:46;99342.63;;;7.44;81.31
74798;BME280;63326;45.088;7.658;2023-02-21T02:49:27;99381.34;;;7.68;81.10
74798;BME280;63326;45.088;7.658;2023-02-21T02:52:02;99351.78;;;7.42;80.84
74798;BME280;63326;45.088;7.658;2023-02-21T02:54:31;99371.94;;;7.64;81.09
74798;BME280;63326;45.088;7.658;2023-02-21T02:56:58;99370.94;;;7.65;81.34
74798;BME280;63326;45.088;7.658;2023-02-21T02:59:28;99347.56;;;7.49;81.74
74798;BME280;63326;45.088;7.658;2023-02-21T03:02:40;99371.66;;;7.67;81.07
74798;BME280;63326;45.088;7.658;2023-02-21T03:05:30;99366.16;;;7.68;81.72
74798;BME280;63326;45.088;7.658;2023-02-21T03:08:05;99362.19;;;7.72;81.33
74798;BME280;63326;45.088;7.658;2023-02-21T03:16:17;99328.56;;;7.52;81.53
74798;BME280;63326;45.088;7.658;2023-02-21T03:18:46;99362.34;;;7.71;81.54
74798;BME280;63326;45.088;7.658;2023-02-21T03:21:20;99353.06;;;7.75;82.03
74798;BME280;63326;45.088;7.658;2023-02-21T03:23:50;99352.22;;;7.74;81.25
74798;BME280;63326;45.088;7.658;2023-02-21T03:26:18;99332.66;;;7.56;81.80
74798;BME280;63326;45.088;7.658;2023-02-21T03:28:49;99352.66;;;7.70;81.78
74798;BME280;63326;45.088;7.658;2023-02-21T03:31:21;99286.53;;;7.36;81.76
74798;BME280;63326;45.088;7.658;2023-02-21T03:33:50;99337.50;;;7.70;81.61
74798;BME280;63326;45.088;7.658;2023-02-21T03:36:17;99334.41;;;7.65;81.63
74798;BME280;63326;45.088;7.658;2023-02-21T03:38:44;99341.94;;;7.79;81.17
74798;BME280;63326;45.088;7.658;2023-02-21T03:41:11;99334.25;;;7.76;81.75
74798;BME280;63326;45.088;7.658;2023-02-21T03:43:38;99302.72;;;7.53;81.32
74798;BME280;63326;45.088;7.658;2023-02-21T03:46:05;99341.66;;;7.83;81.97
74798;BME280;63326;45.088;7.658;2023-02-21T03:48:33;99327.63;;;7.80;80.98
74798;BME280;63326;45.088;7.658;2023-02-21T03:51:09;99301.16;;;7.60;82.01
74798;BME280;63326;45.088;7.658;2023-02-21T03:53:36;99308.03;;;7.62;81.97
74798;BME280;63326;45.088;7.658;2023-02-21T03:56:04;99331.13;;;7.81;82.36
74798;BME280;63326;45.088;7.658;2023-02-21T03:58:47;99333.78;;;7.81;81.91
74798;BME280;63326;45.088;7.658;2023-02-21T04:01:14;99337.00;;;7.85;82.43
74798;BME280;63326;45.088;7.658;2023-02-21T04:03:41;99282.78;;;7.57;81.87
74798;BME280;63326;45.088;7.658;2023-02-21T04:06:08;99319.97;;;7.86;81.86
74798;BME280;63326;45.088;7.658;2023-02-21T04:08:35;99335.41;;;7.92;81.90
74798;BME280;63326;45.088;7.658;2023-02-21T04:11:03;99260.19;;;7.51;82.00
74798;BME280;63326;45.088;7.658;2023-02-21T04:13:32;99326.00;;;7.97;81.98
74798;BME280;63326;45.088;7.658;2023-02-21T04:16:00;99324.84;;;8.00;82.12
74798;BME280;63326;45.088;7.658;2023-02-21T04:18:28;99326.94;;;7.96;82.59
74798;BME280;63326;45.088;7.658;2023-02-21T04:20:58;99321.38;;;7.90;82.70
74798;BME280;63326;45.088;7.658;2023-02-21T04:23:25;99319.41;;;7.92;82.33
74798;BME280;63326;45.088;7.658;2023-02-21T04:25:52;99297.41;;;7.80;82.64
74798;BME280;63326;45.088;7.658;2023-02-21T04:28:28;99307.56;;;7.76;83.21
74798;BME280;63326;45.088;7.658;2023-02-21T04:30:55;99301.28;;;7.68;83.13
74798;BME280;63326;45.088;7.658;2023-02-21T04:33:22;99309.81;;;7.71;83.42
74798;BME280;63326;45.088;7.658;2023-02-21T04:35:49;99303.94;;;7.68;82.95
74798;BME280;63326;45.088;7.658;2023-02-21T04:38:33;99256.34;;;7.36;83.70
74798;BME280;63326;45.088;7.658;2023-02-21T04:41:00;99304.13;;;7.57;83.96
74798;BME280;63326;45.088;7.658;2023-02-21T04:43:28;99319.00;;;7.59;83.81
74798;BME280;63326;45.088;7.658;2023-02-21T04:45:54;99312.41;;;7.54;84.52
74798;BME280;63326;45.088;7.658;2023-02-21T04:48:23;99267.31;;;7.23;84.28
74798;BME280;63326;45.088;7.658;2023-02-21T04:50:50;99288.75;;;7.41;84.22
74798;BME280;63326;45.088;7.658;2023-02-21T04:53:17;99311.16;;;7.58;83.83
74798;BME280;63326;45.088;7.658;2023-02-21T04:55:44;99260.31;;;7.22;84.22
74798;BME280;63326;45.088;7.658;2023-02-21T04:58:10;99268.56;;;7.29;83.80
74798;BME280;63326;45.088;7.658;2023-02-21T05:00:37;99320.84;;;7.59;83.52
74798;BME280;63326;45.088;7.658;2023-02-21T05:03:03;99311.69;;;7.61;84.14
74798;BME280;63326;45.088;7.658;2023-02-21T05:05:30;99307.75;;;7.56;84.05
74798;BME280;63326;45.088;7.658;2023-02-21T05:07:57;99303.28;;;7.56;83.45
74798;BME280;63326;45.088;7.658;2023-02-21T05:10:23;99315.59;;;7.67;83.54
74798;BME280;63326;45.088;7.658;2023-02-21T05:13:02;99271.44;;;7.45;83.09
74798;BME280;63326;45.088;7.658;2023-02-21T05:15:28;99306.69;;;7.76;83.24
74798;BME280;63326;45.088;7.658;2023-02-21T05:17:55;99304.72;;;7.78;82.69
74798;BME280;63326;45.088;7.658;2023-02-21T05:20:22;99307.09;;;7.81;82.93
74798;BME280;63326;45.088;7.658;2023-02-21T05:22:48;99277.09;;;7.69;82.05
74798;BME280;63326;45.088;7.658;2023-02-21T05:25:17;99296.13;;;7.84;81.69
74798;BME280;63326;45.088;7.658;2023-02-21T05:27:44;99291.91;;;7.82;82.03
74798;BME280;63326;45.088;7.658;2023-02-21T05:30:14;99287.31;;;7.74;81.09
74798;BME280;63326;45.088;7.658;2023-02-21T05:32:41;99275.28;;;7.70;80.63
74798;BME280;63326;45.088;7.658;2023-02-21T05:35:08;99287.31;;;7.74;80.87
74798;BME280;63326;45.088;7.658;2023-02-21T05:37:35;99295.59;;;7.80;81.00
74798;BME280;63326;45.088;7.658;2023-02-21T05:40:03;99299.41;;;7.78;80.75
74798;BME280;63326;45.088;7.658;2023-02-21T05:42:31;99298.94;;;7.83;80.81
74798;BME280;63326;45.088;7.658;2023-02-21T05:44:58;99272.34;;;7.63;80.46
74798;BME280;63326;45.088;7.658;2023-02-21T05:47:24;99287.16;;;7.75;80.53
74798;BME280;63326;45.088;7.658;2023-02-21T05:49:51;99307.25;;;7.79;80.31
74798;BME280;63326;45.088;7.658;2023-02-21T05:52:18;99264.78;;;7.59;80.49
74798;BME280;63326;45.088;7.658;2023-02-21T05:54:44;99304.97;;;7.85;80.65
74798;BME280;63326;45.088;7.658;2023-02-21T05:57:11;99291.53;;;7.76;80.63
74798;BME280;63326;45.088;7.658;2023-02-21T05:59:38;99281.28;;;7.72;80.33
74798;BME280;63326;45.088;7.658;2023-02-21T06:02:05;99300.19;;;7.88;79.98
74798;BME280;63326;45.088;7.658;2023-02-21T06:04:31;99299.03;;;7.91;80.03
74798;BME280;63326;45.088;7.658;2023-02-21T06:06:58;99292.03;;;7.90;79.67
74798;BME280;63326;45.088;7.658;2023-02-21T06:09:25;99295.22;;;7.93;79.48
74798;BME280;63326;45.088;7.658;2023-02-21T06:11:55;99285.53;;;7.92;79.70
74798;BME280;63326;45.088;7.658;2023-02-21T06:14:22;99288.88;;;7.94;79.56
74798;BME280;63326;45.088;7.658;2023-02-21T06:16:49;99262.56;;;7.82;79.80
74798;BME280;63326;45.088;7.658;2023-02-21T06:19:16;99282.88;;;7.92;80.40
74798;BME280;63326;45.088;7.658;2023-02-21T06:21:44;99296.06;;;7.94;79.93
74798;BME280;63326;45.088;7.658;2023-02-21T06:24:11;99257.56;;;7.69;80.42
74798;BME280;63326;45.088;7.658;2023-02-21T06:26:38;99270.78;;;7.70;80.36
74798;BME280;63326;45.088;7.658;2023-02-21T06:29:06;99294.69;;;7.90;80.60
74798;BME280;63326;45.088;7.658;2023-02-21T06:31:33;99294.44;;;7.83;80.05
74798;BME280;63326;45.088;7.658;2023-02-21T06:34:01;99299.41;;;7.96;79.85
74798;BME280;63326;45.088;7.658;2023-02-21T06:36:28;99278.31;;;7.75;80.09
74798;BME280;63326;45.088;7.658;2023-02-21T06:38:56;99310.41;;;7.93;79.73
74798;BME280;63326;45.088;7.658;2023-02-21T06:41:25;99312.22;;;7.92;80.09
74798;BME280;63326;45.088;7.658;2023-02-21T06:43:53;99310.66;;;7.99;79.64
74798;BME280;63326;45.088;7.658;2023-02-21T06:46:23;99313.84;;;8.03;79.98
74798;BME280;63326;45.088;7.658;2023-02-21T06:48:51;99312.56;;;8.07;79.56
74798;BME280;63326;45.088;7.658;2023-02-21T06:51:18;99310.44;;;8.11;79.22
74798;BME280;63326;45.088;7.658;2023-02-21T06:53:48;99311.44;;;8.09;78.71
74798;BME280;63326;45.088;7.658;2023-02-21T06:56:15;99261.25;;;7.86;79.06
74798;BME280;63326;45.088;7.658;2023-02-21T06:58:42;99288.72;;;7.96;78.06
74798;BME280;63326;45.088;7.658;2023-02-21T07:01:08;99309.59;;;8.10;78.57
74798;BME280;63326;45.088;7.658;2023-02-21T07:03:39;99295.31;;;8.01;78.48
74798;BME280;63326;45.088;7.658;2023-02-21T07:06:08;99315.47;;;8.14;78.63
74798;BME280;63326;45.088;7.658;2023-02-21T07:08:34;99325.53;;;8.02;78.70
74798;BME280;63326;45.088;7.658;2023-02-21T07:11:01;99317.81;;;7.99;77.97
74798;BME280;63326;45.088;7.658;2023-02-21T07:13:28;99310.41;;;7.93;79.12
74798;BME280;63326;45.088;7.658;2023-02-21T07:15:54;99298.41;;;7.97;78.85
74798;BME280;63326;45.088;7.658;2023-02-21T07:18:21;99316.31;;;8.14;78.80
74798;BME280;63326;45.088;7.658;2023-02-21T07:20:48;99320.50;;;8.17;78.78
74798;BME280;63326;45.088;7.658;2023-02-21T07:23:15;99320.38;;;8.18;78.09
74798;BME280;63326;45.088;7.658;2023-02-21T07:25:41;99310.66;;;8.17;78.39
74798;BME280;63326;45.088;7.658;2023-02-21T07:28:09;99318.66;;;8.17;78.63
74798;BME280;63326;45.088;7.658;2023-02-21T07:30:35;99326.56;;;8.19;78.16
74798;BME280;63326;45.088;7.658;2023-02-21T07:33:02;99322.75;;;8.21;78.11
74798;BME280;63326;45.088;7.658;2023-02-21T07:35:29;99273.75;;;7.85;78.35
74798;BME280;63326;45.088;7.658;2023-02-21T07:37:55;99295.25;;;8.11;77.69
74798;BME280;63326;45.088;7.658;2023-02-21T07:40:22;99326.47;;;8.38;77.13
74798;BME280;63326;45.088;7.658;2023-02-21T07:42:48;99319.97;;;8.41;77.30
74798;BME280;63326;45.088;7.658;2023-02-21T07:45:15;99326.25;;;8.49;77.15
74798;BME280;63326;45.088;7.658;2023-02-21T07:47:44;99257.56;;;8.14;77.00
74798;BME280;63326;45.088;7.658;2023-02-21T07:50:14;99268.84;;;8.26;76.16
74798;BME280;63326;45.088;7.658;2023-02-21T07:52:41;99321.34;;;8.62;75.91
74798;BME280;63326;45.088;7.658;2023-02-21T07:55:08;99281.31;;;8.53;76.55
74798;BME280;63326;45.088;7.658;2023-02-21T07:57:34;99263.63;;;8.52;76.14
74798;BME280;63326;45.088;7.658;2023-02-21T08:00:01;99264.38;;;8.62;74.98
74798;BME280;63326;45.088;7.658;2023-02-21T08:02:38;99324.25;;;9.13;74.09
74798;BME280;63326;45.088;7.658;2023-02-21T08:05:06;99323.50;;;9.29;73.62
74798;BME280;63326;45.088;7.658;2023-02-21T08:07:33;99307.00;;;9.33;73.33
74798;BME280;63326;45.088;7.658;2023-02-21T08:10:00;99320.81;;;9.55;72.32
74798;BME280;63326;45.088;7.658;2023-02-21T08:12:26;99319.91;;;9.72;71.84
74798;BME280;63326;45.088;7.658;2023-02-21T08:14:53;99300.28;;;9.63;71.80
74798;BME280;63326;45.088;7.658;2023-02-21T08:17:20;99319.22;;;9.70;70.63
74798;BME280;63326;45.088;7.658;2023-02-21T08:19:46;99313.50;;;9.65;70.59
74798;BME280;63326;45.088;7.658;2023-02-21T08:22:13;99278.94;;;9.45;70.63
74798;BME280;63326;45.088;7.658;2023-02-21T08:24:40;99309.75;;;9.84;69.89
74798;BME280;63326;45.088;7.658;2023-02-21T08:27:06;99292.50;;;9.86;70.03
74798;BME280;63326;45.088;7.658;2023-02-21T08:29:33;99273.47;;;9.97;68.52
74798;BME280;63326;45.088;7.658;2023-02-21T08:32:00;99303.09;;;10.71;67.77
74798;BME280;63326;45.088;7.658;2023-02-21T08:34:27;99326.06;;;11.14;65.64
74798;BME280;63326;45.088;7.658;2023-02-21T08:36:55;99298.97;;;11.56;64.68
74798;BME280;63326;45.088;7.658;2023-02-21T08:39:22;99322.22;;;11.72;63.81
74798;BME280;63326;45.088;7.658;2023-02-21T08:41:49;99318.31;;;11.91;63.47
74798;BME280;63326;45.088;7.658;2023-02-21T08:44:17;99310.75;;;11.22;64.11
74798;BME280;63326;45.088;7.658;2023-02-21T08:46:47;99310.34;;;11.66;63.10
74798;BME280;63326;45.088;7.658;2023-02-21T08:49:15;99274.34;;;11.36;62.78
74798;BME280;63326;45.088;7.658;2023-02-21T08:51:42;99319.34;;;11.73;62.85
74798;BME280;63326;45.088;7.658;2023-02-21T08:54:08;99319.63;;;11.95;62.63
74798;BME280;63326;45.088;7.658;2023-02-21T08:56:35;99272.31;;;11.38;61.95
74798;BME280;63326;45.088;7.658;2023-02-21T08:59:02;99286.47;;;11.16;63.99
74798;BME280;63326;45.088;7.658;2023-02-21T09:01:32;99314.31;;;11.78;62.54
74798;BME280;63326;45.088;7.658;2023-02-21T09:04:00;99306.81;;;12.05;62.29
74798;BME280;63326;45.088;7.658;2023-02-21T09:06:27;99298.09;;;12.34;61.17
74798;BME280;63326;45.088;7.658;2023-02-21T09:08:54;99257.91;;;12.18;60.88
74798;BME280;63326;45.088;7.658;2023-02-21T09:11:20;99297.97;;;12.96;60.15
74798;BME280;63326;45.088;7.658;2023-02-21T09:13:47;99283.94;;;13.23;58.38
74798;BME280;63326;45.088;7.658;2023-02-21T09:16:13;99241.63;;;12.80;58.55
74798;BME280;63326;45.088;7.658;2023-02-21T09:18:40;99287.19;;;12.81;58.70
74798;BME280;63326;45.088;7.658;2023-02-21T09:21:07;99267.91;;;13.30;57.38
74798;BME280;63326;45.088;7.658;2023-02-21T09:23:33;99291.06;;;13.16;56.79
74798;BME280;63326;45.088;7.658;2023-02-21T09:26:00;99286.84;;;13.37;56.93
74798;BME280;63326;45.088;7.658;2023-02-21T09:28:27;99285.84;;;13.52;56.65
74798;BME280;63326;45.088;7.658;2023-02-21T09:30:54;99241.63;;;13.62;56.10
74798;BME280;63326;45.088;7.658;2023-02-21T09:33:21;99227.16;;;13.84;55.72
74798;BME280;63326;45.088;7.658;2023-02-21T09:35:50;99268.72;;;14.26;55.10
74798;BME280;63326;45.088;7.658;2023-02-21T09:38:17;99278.06;;;14.45;54.09
74798;BME280;63326;45.088;7.658;2023-02-21T09:40:57;99268.75;;;14.68;53.53
74798;BME280;63326;45.088;7.658;2023-02-21T09:43:37;99280.66;;;14.53;53.53
74798;BME280;63326;45.088;7.658;2023-02-21T09:46:18;99277.59;;;14.41;53.80
74798;BME280;63326;45.088;7.658;2023-02-21T09:48:47;99276.81;;;14.90;52.51
74798;BME280;63326;45.088;7.658;2023-02-21T09:51:15;99278.50;;;14.91;52.50
74798;BME280;63326;45.088;7.658;2023-02-21T09:53:46;99271.09;;;15.55;51.11
74798;BME280;63326;45.088;7.658;2023-02-21T09:56:44;99273.50;;;16.33;49.88
74798;BME280;63326;45.088;7.658;2023-02-21T09:59:12;99220.75;;;14.43;51.43
74798;BME280;63326;45.088;7.658;2023-02-21T10:10:30;99270.97;;;15.70;49.61
74798;BME280;63326;45.088;7.658;2023-02-21T10:15:52;99267.13;;;15.86;49.41
74798;BME280;63326;45.088;7.658;2023-02-21T10:20:52;99259.13;;;16.19;47.93
74798;BME280;63326;45.088;7.658;2023-02-21T10:23:37;99253.75;;;16.39;47.55
74798;BME280;63326;45.088;7.658;2023-02-21T10:26:12;99269.47;;;16.83;46.24
74798;BME280;63326;45.088;7.658;2023-02-21T10:28:39;99257.78;;;16.69;47.00
74798;BME280;63326;45.088;7.658;2023-02-21T10:31:25;99267.31;;;15.91;48.51
74798;BME280;63326;45.088;7.658;2023-02-21T10:33:55;99257.13;;;16.67;47.25
74798;BME280;63326;45.088;7.658;2023-02-21T10:36:22;99262.38;;;17.15;45.71
74798;BME280;63326;45.088;7.658;2023-02-21T10:39:23;99261.25;;;17.63;45.10
74798;BME280;63326;45.088;7.658;2023-02-21T10:41:55;99246.94;;;16.96;45.60
74798;BME280;63326;45.088;7.658;2023-02-21T10:44:33;99246.59;;;16.11;47.61
74798;BME280;63326;45.088;7.658;2023-02-21T10:47:10;99257.53;;;14.65;51.93
74798;BME280;63326;45.088;7.658;2023-02-21T10:49:51;99255.63;;;15.43;49.93
74798;BME280;63326;45.088;7.658;2023-02-21T10:52:20;99248.13;;;16.27;47.57
74798;BME280;63326;45.088;7.658;2023-02-21T10:55:18;99240.28;;;17.18;45.28
74798;BME280;63326;45.088;7.658;2023-02-21T10:58:06;99200.91;;;16.96;45.53
74798;BME280;63326;45.088;7.658;2023-02-21T11:00:37;99209.66;;;17.18;45.50
74798;BME280;63326;45.088;7.658;2023-02-21T11:03:12;99199.78;;;18.39;42.45
74798;BME280;63326;45.088;7.658;2023-02-21T11:06:02;99226.09;;;18.01;42.93
74798;BME280;63326;45.088;7.658;2023-02-21T11:08:36;99200.25;;;17.20;44.62
74798;BME280;63326;45.088;7.658;2023-02-21T11:11:03;99218.56;;;18.03;43.04
74798;BME280;63326;45.088;7.658;2023-02-21T11:13:34;99213.47;;;17.68;43.66
74798;BME280;63326;45.088;7.658;2023-02-21T11:16:19;99206.31;;;16.96;45.36
74798;BME280;63326;45.088;7.658;2023-02-21T11:19:04;99201.16;;;16.68;46.10
74798;BME280;63326;45.088;7.658;2023-02-21T11:21:31;99195.19;;;17.50;44.46
74798;BME280;63326;45.088;7.658;2023-02-21T11:24:01;99189.00;;;17.88;43.75
74798;BME280;63326;45.088;7.658;2023-02-21T11:26:35;99179.44;;;18.80;41.89
74798;BME280;63326;45.088;7.658;2023-02-21T11:29:20;99164.09;;;19.29;38.96
74798;BME280;63326;45.088;7.658;2023-02-21T11:31:50;99188.25;;;19.92;38.44
74798;BME280;63326;45.088;7.658;2023-02-21T11:34:18;99150.19;;;18.76;40.23
74798;BME280;63326;45.088;7.658;2023-02-21T11:36:46;99174.19;;;19.40;39.64
74798;BME280;63326;45.088;7.658;2023-02-21T11:41:49;99180.31;;;19.91;38.02
74798;BME280;63326;45.088;7.658;2023-02-21T11:50:06;99176.38;;;17.55;43.20
74798;BME280;63326;45.088;7.658;2023-02-21T11:52:41;99163.84;;;18.69;41.24
74798;BME280;63326;45.088;7.658;2023-02-21T11:55:14;99155.78;;;19.42;39.85
74798;BME280;63326;45.088;7.658;2023-02-21T11:58:00;99154.84;;;18.43;41.77
74798;BME280;63326;45.088;7.658;2023-02-21T12:03:35;99136.53;;;19.44;39.61
74798;BME280;63326;45.088;7.658;2023-02-21T12:06:27;99133.66;;;19.57;39.41
74798;BME280;63326;45.088;7.658;2023-02-21T12:11:56;99114.00;;;20.68;36.92
74798;BME280;63326;45.088;7.658;2023-02-21T12:14:59;99093.00;;;21.16;35.64
74798;BME280;63326;45.088;7.658;2023-02-21T12:17:45;99112.34;;;20.44;37.03
74798;BME280;63326;45.088;7.658;2023-02-21T12:20:23;99106.75;;;20.62;36.86
74798;BME280;63326;45.088;7.658;2023-02-21T12:31:17;99099.59;;;20.26;37.31
74798;BME280;63326;45.088;7.658;2023-02-21T12:36:58;99092.06;;;20.52;37.06
74798;BME280;63326;45.088;7.658;2023-02-21T12:39:55;99077.72;;;20.91;36.15
74798;BME280;63326;45.088;7.658;2023-02-21T12:42:56;99083.03;;;21.10;35.96
74798;BME280;63326;45.088;7.658;2023-02-21T12:50:52;99041.41;;;22.11;33.42
74798;BME280;63326;45.088;7.658;2023-02-21T12:53:40;99056.66;;;21.96;33.61
74798;BME280;63326;45.088;7.658;2023-02-21T12:58:55;99035.66;;;24.00;30.46
74798;BME280;63326;45.088;7.658;2023-02-21T13:01:32;99004.41;;;23.96;30.13
74798;BME280;63326;45.088;7.658;2023-02-21T13:07:13;99026.97;;;23.54;31.16
74798;BME280;63326;45.088;7.658;2023-02-21T13:09:48;99048.94;;;23.59;30.59
74798;BME280;63326;45.088;7.658;2023-02-21T13:12:27;99039.00;;;22.87;32.15
74798;BME280;63326;45.088;7.658;2023-02-21T13:15:14;99020.56;;;23.92;30.66
74798;BME280;63326;45.088;7.658;2023-02-21T13:17:42;99019.16;;;24.54;29.21
74798;BME280;63326;45.088;7.658;2023-02-21T13:20:15;99025.72;;;24.53;29.19
74798;BME280;63326;45.088;7.658;2023-02-21T13:23:02;99021.53;;;25.50;27.86
74798;BME280;63326;45.088;7.658;2023-02-21T13:28:30;98974.44;;;24.16;29.22
74798;BME280;63326;45.088;7.658;2023-02-21T13:31:03;98965.63;;;23.23;30.64
74798;BME280;63326;45.088;7.658;2023-02-21T13:33:44;99008.78;;;24.66;29.00
74798;BME280;63326;45.088;7.658;2023-02-21T13:38:57;98991.50;;;25.18;28.64
74798;BME280;63326;45.088;7.658;2023-02-21T13:41:27;98969.69;;;25.74;27.27
74798;BME280;63326;45.088;7.658;2023-02-21T13:43:56;98995.34;;;24.22;29.49
74798;BME280;63326;45.088;7.658;2023-02-21T13:52:25;98998.25;;;24.42;29.59
74798;BME280;63326;45.088;7.658;2023-02-21T14:03:00;98991.41;;;24.13;29.72
74798;BME280;63326;45.088;7.658;2023-02-21T14:18:50;98986.75;;;24.51;29.10
74798;BME280;63326;45.088;7.658;2023-02-21T14:26:44;98974.09;;;24.39;29.56
74798;BME280;63326;45.088;7.658;2023-02-21T14:48:51;98970.28;;;20.87;35.85
74798;BME280;63326;45.088;7.658;2023-02-21T15:04:57;98965.28;;;20.96;36.08
74798;BME280;63326;45.088;7.658;2023-02-21T15:13:01;98950.75;;;22.31;33.13
74798;BME280;63326;45.088;7.658;2023-02-21T15:15:38;98958.66;;;22.28;33.18
74798;BME280;63326;45.088;7.658;2023-02-21T15:18:24;98955.47;;;22.02;33.69
74798;BME280;63326;45.088;7.658;2023-02-21T15:23:33;98953.59;;;23.24;31.67
74798;BME280;63326;45.088;7.658;2023-02-21T15:26:18;98927.53;;;23.16;31.44
74798;BME280;63326;45.088;7.658;2023-02-21T15:29:22;98926.06;;;23.31;30.93
74798;BME280;63326;45.088;7.658;2023-02-21T15:31:52;98936.97;;;23.04;31.40
74798;BME280;63326;45.088;7.658;2023-02-21T15:34:29;98936.28;;;23.40;31.12
74798;BME280;63326;45.088;7.658;2023-02-21T15:37:12;98933.31;;;23.47;31.08
74798;BME280;63326;45.088;7.658;2023-02-21T15:39:51;98911.06;;;22.67;32.13
74798;BME280;63326;45.088;7.658;2023-02-21T15:42:21;98884.81;;;22.66;31.99
74798;BME280;63326;45.088;7.658;2023-02-21T15:44:56;98938.44;;;23.11;31.49
74798;BME280;63326;45.088;7.658;2023-02-21T15:47:25;98913.13;;;23.26;31.16
74798;BME280;63326;45.088;7.658;2023-02-21T15:52:38;98944.00;;;23.75;30.56
74798;BME280;63326;45.088;7.658;2023-02-21T15:57:40;98923.09;;;22.88;32.15
74798;BME280;63326;45.088;7.658;2023-02-21T16:05:52;98897.56;;;21.83;33.64
74798;BME280;63326;45.088;7.658;2023-02-21T16:08:21;98921.75;;;21.58;34.21
74798;BME280;63326;45.088;7.658;2023-02-21T16:10:48;98903.19;;;21.15;34.55
74798;BME280;63326;45.088;7.658;2023-02-21T16:13:15;98899.47;;;20.76;35.39
74798;BME280;63326;45.088;7.658;2023-02-21T16:15:42;98897.28;;;20.37;36.29
74798;BME280;63326;45.088;7.658;2023-02-21T16:18:10;98941.53;;;20.33;37.51
74798;BME280;63326;45.088;7.658;2023-02-21T16:20:42;98942.38;;;20.10;37.36
74798;BME280;63326;45.088;7.658;2023-02-21T16:23:23;98952.91;;;19.83;38.23
74798;BME280;63326;45.088;7.658;2023-02-21T16:26:21;98946.63;;;19.41;38.85
74798;BME280;63326;45.088;7.658;2023-02-21T16:28:47;98953.31;;;18.96;40.17
74798;BME280;63326;45.088;7.658;2023-02-21T16:31:16;98949.34;;;18.62;40.79